Time;durP1;ratioP1;P1;durP2;ratioP2;P2;SDS_P1;SDS_P2;PMS_P1;PMS_P2;Temp;Humidity;BMP_temperature;BMP_pressure;BME280_temperature;BME280_humidity;BME280_pressure;Samples;Min_cycle;Max_cycle;Signal;HPM_P1;HPM_P2
2022/07/26 00:01:56;;;;;;;9.50;7.63;;;21.00;99.90;;;;;;4971559;28;20710;-52
2022/07/26 00:04:23;;;;;;;17.37;7.67;;;20.90;99.90;;;;;;4979882;28;20615;-52
2022/07/26 00:06:50;;;;;;;7.30;6.27;;;21.00;99.90;;;;;;4991131;28;20274;-52
2022/07/26 00:09:16;;;;;;;9.37;6.87;;;20.90;99.90;;;;;;4973439;28;20282;-52
2022/07/26 00:11:44;;;;;;;7.33;6.37;;;20.90;99.90;;;;;;4972338;28;20266;-52
2022/07/26 00:14:11;;;;;;;8.17;6.73;;;20.90;99.90;;;;;;4982995;28;20647;-52
2022/07/26 00:16:40;;;;;;;12.43;6.63;;;20.90;99.90;;;;;;4991228;28;20200;-52
2022/07/26 00:19:07;;;;;;;7.33;6.60;;;20.90;99.90;;;;;;4981522;28;20204;-52
2022/07/26 00:21:35;;;;;;;6.97;6.23;;;20.80;99.90;;;;;;4974684;28;20625;-52
2022/07/26 00:24:03;;;;;;;9.13;7.20;;;20.90;99.90;;;;;;4982895;28;20767;-52
2022/07/26 00:26:30;;;;;;;8.77;7.20;;;20.90;99.90;;;;;;4973386;28;20267;-52
2022/07/26 00:28:57;;;;;;;7.60;6.27;;;20.90;99.90;;;;;;4975098;28;20239;-52
2022/07/26 00:31:24;;;;;;;8.47;6.10;;;20.90;99.90;;;;;;4974662;28;20662;-52
2022/07/26 00:33:52;;;;;;;7.83;7.03;;;20.90;99.90;;;;;;4986128;28;20247;-52
2022/07/26 00:36:19;;;;;;;5.73;5.20;;;20.90;99.90;;;;;;4994647;28;20262;-52
2022/07/26 00:38:46;;;;;;;8.73;6.47;;;20.90;99.90;;;;;;4994168;28;20207;-52
2022/07/26 00:41:13;;;;;;;6.77;5.50;;;20.90;99.90;;;;;;4987079;28;20209;-52
2022/07/26 00:43:54;;;;;;;10.27;6.37;;;20.90;99.90;;;;;;4985228;28;20366;-52
2022/07/26 00:46:21;;;;;;;6.33;5.73;;;21.00;99.90;;;;;;4994156;28;20247;-52
2022/07/26 00:48:47;;;;;;;7.13;6.27;;;21.00;99.90;;;;;;4994212;28;20199;-52
2022/07/26 00:51:16;;;;;;;10.73;6.57;;;20.90;99.90;;;;;;4990125;28;20266;-51
2022/07/26 00:53:44;;;;;;;7.20;5.97;;;20.90;99.90;;;;;;4986007;28;20632;-52
2022/07/26 00:56:13;;;;;;;8.43;6.70;;;20.90;99.90;;;;;;4994103;28;20270;-52
2022/07/26 00:58:40;;;;;;;9.77;7.07;;;20.80;99.90;;;;;;4988897;28;20220;-52
2022/07/26 01:01:07;;;;;;;17.13;8.50;;;20.80;99.90;;;;;;4972262;28;20287;-52
2022/07/26 01:03:34;;;;;;;7.67;6.77;;;20.90;99.90;;;;;;4974114;28;20235;-52
2022/07/26 01:06:01;;;;;;;12.93;7.57;;;20.70;99.90;;;;;;4974661;28;20208;-52
2022/07/26 01:08:30;;;;;;;8.97;6.47;;;20.70;99.90;;;;;;4974262;28;20220;-52
2022/07/26 01:10:57;;;;;;;8.87;6.40;;;20.70;99.90;;;;;;4977690;28;20261;-52
2022/07/26 01:13:23;;;;;;;8.33;6.83;;;20.60;99.90;;;;;;4985824;28;20266;-52
2022/07/26 01:15:51;;;;;;;7.27;6.50;;;20.50;99.90;;;;;;4987513;28;20212;-52
2022/07/26 01:18:17;;;;;;;10.43;7.30;;;20.50;99.90;;;;;;4974493;28;20267;-52
2022/07/26 01:20:45;;;;;;;7.33;6.43;;;20.40;99.90;;;;;;4976281;28;20243;-52
2022/07/26 01:23:13;;;;;;;7.23;6.43;;;20.40;99.90;;;;;;4985411;28;20672;-52
2022/07/26 01:25:40;;;;;;;12.20;6.50;;;20.40;99.90;;;;;;4993576;28;20199;-51
2022/07/26 01:28:07;;;;;;;8.97;6.90;;;20.40;99.90;;;;;;4993467;28;20224;-52
2022/07/26 01:30:34;;;;;;;8.10;6.53;;;20.50;99.90;;;;;;4991096;28;20259;-52
2022/07/26 01:33:01;;;;;;;7.43;6.70;;;20.50;99.90;;;;;;4985580;28;20219;-52
2022/07/26 01:35:29;;;;;;;11.03;7.00;;;20.50;99.90;;;;;;4993602;28;20204;-52
2022/07/26 01:37:56;;;;;;;8.63;7.37;;;20.50;99.90;;;;;;4992925;28;20206;-52
2022/07/26 01:40:24;;;;;;;8.83;7.33;;;20.50;99.90;;;;;;4991229;28;20203;-52
2022/07/26 01:42:51;;;;;;;7.50;6.80;;;20.50;99.90;;;;;;4985418;28;20757;-52
2022/07/26 01:45:18;;;;;;;8.87;6.53;;;20.40;99.90;;;;;;4993202;28;20204;-52
2022/07/26 01:47:48;;;;;;;9.33;7.03;;;20.30;99.90;;;;;;4993148;28;20712;-52
2022/07/26 01:50:17;;;;;;;8.43;7.30;;;20.30;99.90;;;;;;4981945;28;20204;-52
2022/07/26 01:52:44;;;;;;;11.83;7.47;;;20.30;99.90;;;;;;4982111;28;20649;-51
2022/07/26 01:55:11;;;;;;;11.33;7.13;;;20.30;99.90;;;;;;4984973;28;20215;-52
2022/07/26 01:57:39;;;;;;;10.63;6.50;;;20.20;99.90;;;;;;4992866;28;20235;-52
2022/07/26 02:00:08;;;;;;;10.40;8.07;;;20.20;99.90;;;;;;4989161;28;20213;-51
2022/07/26 02:02:35;;;;;;;9.90;7.20;;;20.30;99.90;;;;;;4983063;28;20208;-51
2022/07/26 02:05:02;;;;;;;8.27;7.33;;;20.20;99.90;;;;;;4992913;28;20199;-52
2022/07/26 02:07:30;;;;;;;13.73;8.10;;;20.10;99.90;;;;;;4981124;28;20264;-52
2022/07/26 02:09:58;;;;;;;10.10;7.03;;;20.10;99.90;;;;;;4972288;28;20267;-51
2022/07/26 02:12:25;;;;;;;8.33;7.27;;;20.10;99.90;;;;;;4981776;28;20282;-52
2022/07/26 02:14:54;;;;;;;7.80;6.20;;;20.00;99.90;;;;;;4992434;28;20207;-52
2022/07/26 02:17:21;;;;;;;10.53;7.87;;;20.00;99.90;;;;;;4992487;28;20259;-51
2022/07/26 02:19:48;;;;;;;8.87;7.43;;;20.00;99.90;;;;;;4992052;28;20239;-52
2022/07/26 02:22:15;;;;;;;7.17;6.47;;;20.10;99.90;;;;;;4980006;28;20243;-51
2022/07/26 02:24:42;;;;;;;9.97;7.67;;;20.10;99.90;;;;;;4978458;28;20931;-52
2022/07/26 02:27:09;;;;;;;9.23;7.53;;;20.00;99.90;;;;;;4972953;28;20577;-52
2022/07/26 02:29:36;;;;;;;7.60;6.90;;;20.00;99.90;;;;;;4972541;28;20608;-52
2022/07/26 02:32:05;;;;;;;11.63;7.17;;;20.00;99.90;;;;;;4980073;28;20204;-51
2022/07/26 02:34:33;;;;;;;7.00;6.30;;;20.00;99.90;;;;;;4990064;28;20224;-52
2022/07/26 02:37:00;;;;;;;7.43;6.70;;;19.90;99.90;;;;;;4992317;28;20204;-52
2022/07/26 02:39:27;;;;;;;9.77;7.80;;;19.90;99.90;;;;;;4981114;28;20638;-52
2022/07/26 02:41:55;;;;;;;10.87;7.50;;;19.90;99.90;;;;;;4982355;28;20259;-51
2022/07/26 02:44:22;;;;;;;7.47;6.73;;;19.90;99.90;;;;;;4988806;28;20310;-52
2022/07/26 02:46:49;;;;;;;11.77;7.63;;;19.90;99.90;;;;;;4992030;28;20266;-51
2022/07/26 02:49:18;;;;;;;7.57;6.90;;;19.90;99.90;;;;;;4991596;28;20223;-51
2022/07/26 02:51:45;;;;;;;9.20;7.67;;;19.90;99.90;;;;;;4980856;28;20737;-52
2022/07/26 02:54:13;;;;;;;9.80;7.27;;;19.90;99.90;;;;;;4977419;28;20223;-52
2022/07/26 02:56:40;;;;;;;7.67;6.90;;;20.00;99.90;;;;;;4983765;28;20203;-52
2022/07/26 02:59:07;;;;;;;7.53;6.73;;;20.00;99.90;;;;;;4975243;28;20412;-52
2022/07/26 03:01:35;;;;;;;7.40;6.63;;;20.00;99.90;;;;;;4972678;28;20586;-51
2022/07/26 03:04:02;;;;;;;7.27;6.67;;;20.00;99.90;;;;;;4978078;28;20228;-51
2022/07/26 03:06:30;;;;;;;7.20;6.20;;;19.90;99.90;;;;;;4979778;28;20206;-52
2022/07/26 03:08:57;;;;;;;7.43;6.33;;;19.90;99.90;;;;;;4984936;28;20251;-52
2022/07/26 03:11:24;;;;;;;6.83;6.23;;;19.90;99.90;;;;;;4991825;28;20204;-51
2022/07/26 03:13:51;;;;;;;7.80;6.37;;;19.90;99.90;;;;;;4991737;28;20313;-52
2022/07/26 03:16:18;;;;;;;9.23;6.83;;;19.90;99.90;;;;;;4973699;28;20254;-52
2022/07/26 03:18:45;;;;;;;5.60;4.97;;;19.90;99.90;;;;;;4973893;28;20707;-52
2022/07/26 03:21:12;;;;;;;8.40;6.03;;;19.90;99.90;;;;;;4976920;28;20200;-51
2022/07/26 03:23:42;;;;;;;7.17;6.57;;;19.90;99.90;;;;;;4972319;28;20646;-52
2022/07/26 03:26:09;;;;;;;6.30;5.40;;;19.90;99.90;;;;;;4978154;28;20227;-51
2022/07/26 03:28:39;;;;;;;7.43;5.30;;;19.90;99.90;;;;;;4971691;28;20283;-52
2022/07/26 03:31:06;;;;;;;5.90;5.37;;;19.80;99.90;;;;;;4973912;28;20208;-51
2022/07/26 03:33:33;;;;;;;5.77;5.23;;;19.70;99.90;;;;;;4985197;28;20287;-52
2022/07/26 03:36:00;;;;;;;6.20;5.70;;;19.70;99.90;;;;;;4968952;28;20208;-52
2022/07/26 03:38:27;;;;;;;6.57;6.17;;;19.70;99.90;;;;;;4980592;28;20616;-52
2022/07/26 03:40:55;;;;;;;6.00;5.43;;;19.70;99.90;;;;;;4991267;28;20207;-52
2022/07/26 03:43:22;;;;;;;5.93;5.23;;;19.70;99.90;;;;;;4979392;28;20287;-51
2022/07/26 03:45:49;;;;;;;4.70;4.40;;;19.70;99.90;;;;;;4979849;28;20259;-51
2022/07/26 03:48:16;;;;;;;6.50;5.20;;;19.70;99.90;;;;;;4976296;28;20771;-52
2022/07/26 03:50:44;;;;;;;6.00;5.10;;;19.70;99.90;;;;;;4978307;28;20204;-52
2022/07/26 03:53:11;;;;;;;5.70;5.20;;;19.70;99.90;;;;;;4970123;28;20248;-52
2022/07/26 03:58:24;;;;;;;5.77;5.27;;;19.70;99.90;;;;;;4966211;28;20223;-52
2022/07/26 04:00:51;;;;;;;5.87;5.20;;;19.70;99.90;;;;;;4974746;28;20231;-52
2022/07/26 04:03:18;;;;;;;5.40;5.00;;;19.70;99.90;;;;;;4985932;28;20231;-52
2022/07/26 04:05:44;;;;;;;6.90;6.13;;;19.70;99.90;;;;;;4973053;28;20760;-52
2022/07/26 04:08:11;;;;;;;7.23;6.73;;;19.70;99.90;;;;;;4962964;28;20311;-52
2022/07/26 04:10:38;;;;;;;7.40;6.70;;;19.70;99.90;;;;;;4954418;28;20209;-52
2022/07/26 04:13:06;;;;;;;6.37;5.87;;;19.70;99.90;;;;;;4963383;28;20248;-52
2022/07/26 04:15:34;;;;;;;6.27;5.80;;;19.70;99.90;;;;;;4980532;28;20290;-51
2022/07/26 04:18:01;;;;;;;6.77;5.87;;;19.70;99.90;;;;;;4971891;28;20283;-52
2022/07/26 04:20:28;;;;;;;7.93;7.23;;;19.60;99.90;;;;;;4981994;28;20208;-52
2022/07/26 04:22:55;;;;;;;7.37;6.43;;;19.60;99.90;;;;;;4982727;28;20220;-52
2022/07/26 04:25:22;;;;;;;6.17;5.77;;;19.70;99.90;;;;;;4976164;28;20200;-52
2022/07/26 04:27:49;;;;;;;7.40;6.80;;;19.70;99.90;;;;;;4974724;28;20305;-51
2022/07/26 04:30:18;;;;;;;8.33;7.53;;;19.70;99.90;;;;;;4971481;28;20235;-52
2022/07/26 04:32:46;;;;;;;6.80;6.20;;;19.70;99.90;;;;;;4957516;28;20630;-52
2022/07/26 04:35:14;;;;;;;7.47;6.87;;;19.70;99.90;;;;;;4973610;28;20201;-52
2022/07/26 04:37:42;;;;;;;7.63;6.93;;;19.70;99.90;;;;;;4961207;28;20255;-52
2022/07/26 04:40:10;;;;;;;8.80;7.63;;;19.70;99.90;;;;;;4961904;28;20263;-52
2022/07/26 04:42:37;;;;;;;11.27;7.83;;;19.70;99.90;;;;;;4973699;28;20251;-52
2022/07/26 04:45:05;;;;;;;8.23;7.43;;;19.70;99.90;;;;;;4973008;28;20211;-51
2022/07/26 04:47:33;;;;;;;8.43;7.60;;;19.80;99.90;;;;;;4970904;28;20255;-52
2022/07/26 04:50:01;;;;;;;7.53;6.90;;;19.70;99.90;;;;;;4967686;28;20746;-52
2022/07/26 04:52:28;;;;;;;9.00;7.80;;;19.80;99.90;;;;;;4974579;28;20298;-52
2022/07/26 04:54:55;;;;;;;11.97;7.53;;;19.70;99.90;;;;;;4972224;28;20247;-52
2022/07/26 04:57:23;;;;;;;8.20;6.50;;;19.70;99.90;;;;;;4972907;28;20200;-52
2022/07/26 04:59:50;;;;;;;6.63;6.13;;;19.50;99.90;;;;;;4969372;28;20258;-52
2022/07/26 05:02:17;;;;;;;6.17;5.67;;;19.50;99.90;;;;;;4969991;28;20265;-52
2022/07/26 05:04:44;;;;;;;7.10;6.40;;;19.50;99.90;;;;;;4967530;28;20250;-52
2022/07/26 05:07:13;;;;;;;6.07;5.57;;;19.50;99.90;;;;;;4968914;28;20236;-52
2022/07/26 05:09:40;;;;;;;6.37;5.83;;;19.50;99.90;;;;;;4974801;28;20224;-51
2022/07/26 05:12:08;;;;;;;6.17;5.77;;;19.60;99.90;;;;;;4969978;28;20197;-52
2022/07/26 05:14:36;;;;;;;5.57;5.17;;;19.60;99.90;;;;;;4970725;28;20228;-51
2022/07/26 05:17:03;;;;;;;5.40;4.90;;;19.50;99.90;;;;;;4968248;28;20589;-52
2022/07/26 05:19:30;;;;;;;10.43;6.37;;;19.60;99.90;;;;;;4968358;28;20205;-52
2022/07/26 05:21:57;;;;;;;6.83;6.13;;;19.60;99.90;;;;;;4973054;28;20247;-52
2022/07/26 05:24:27;;;;;;;7.20;6.50;;;19.60;99.90;;;;;;4962685;28;20657;-52
2022/07/26 05:26:53;;;;;;;6.20;5.70;;;19.60;99.90;;;;;;4967270;28;20666;-52
2022/07/26 05:29:21;;;;;;;5.57;5.07;;;19.50;99.90;;;;;;4956312;28;20639;-52
2022/07/26 05:31:49;;;;;;;5.73;5.23;;;19.50;99.90;;;;;;4969835;28;20201;-52
2022/07/26 05:34:15;;;;;;;6.67;4.77;;;19.60;99.90;;;;;;4964409;28;20228;-52
2022/07/26 05:36:43;;;;;;;5.13;4.60;;;19.60;99.90;;;;;;4963993;28;20209;-51
2022/07/26 05:39:09;;;;;;;5.33;4.93;;;19.60;99.90;;;;;;4969608;28;20208;-52
2022/07/26 05:41:38;;;;;;;4.60;4.23;;;19.70;99.90;;;;;;4973284;28;20730;-52
2022/07/26 05:44:05;;;;;;;5.20;4.70;;;19.70;99.90;;;;;;4971418;28;20660;-51
2022/07/26 05:46:32;;;;;;;5.23;4.80;;;19.70;99.90;;;;;;4968192;28;20197;-52
2022/07/26 05:48:59;;;;;;;4.93;4.57;;;19.70;99.90;;;;;;4972532;28;20275;-51
2022/07/26 05:51:29;;;;;;;5.83;4.80;;;19.80;99.90;;;;;;4969027;28;20212;-51
2022/07/26 05:53:56;;;;;;;5.03;4.70;;;19.80;99.90;;;;;;4969040;28;20216;-52
2022/07/26 05:56:24;;;;;;;4.30;3.80;;;19.70;99.90;;;;;;4971835;28;20300;-52
2022/07/26 05:58:53;;;;;;;4.80;4.50;;;19.80;99.90;;;;;;4967887;28;20279;-52
2022/07/26 06:01:20;;;;;;;5.33;5.00;;;19.80;99.90;;;;;;4956628;28;20264;-52
2022/07/26 06:03:47;;;;;;;5.10;4.60;;;19.90;99.90;;;;;;4967013;28;20650;-52
2022/07/26 06:06:14;;;;;;;5.20;4.80;;;19.80;99.90;;;;;;4955910;28;20228;-51
2022/07/26 06:08:41;;;;;;;5.33;4.93;;;19.90;99.90;;;;;;4968846;28;20227;-51
2022/07/26 06:11:08;;;;;;;11.87;4.93;;;19.90;99.90;;;;;;4953243;28;20206;-52
2022/07/26 06:13:35;;;;;;;4.50;4.30;;;20.00;99.90;;;;;;4959611;28;20236;-52
2022/07/26 06:16:04;;;;;;;4.97;4.57;;;20.30;99.90;;;;;;4953373;28;20671;-52
2022/07/26 06:18:31;;;;;;;4.30;3.90;;;20.60;99.90;;;;;;4954358;28;20638;-52
2022/07/26 06:20:59;;;;;;;4.53;3.87;;;20.70;99.90;;;;;;4958913;28;20207;-52
2022/07/26 06:23:26;;;;;;;4.50;4.20;;;20.80;99.90;;;;;;4967672;28;20236;-52
2022/07/26 06:25:53;;;;;;;5.03;4.50;;;20.70;99.90;;;;;;4961014;28;20288;-52
2022/07/26 06:28:20;;;;;;;5.67;4.33;;;20.50;99.90;;;;;;4971413;28;20208;-52
2022/07/26 06:30:47;;;;;;;4.83;4.53;;;20.50;99.90;;;;;;4953139;28;20205;-52
2022/07/26 06:33:16;;;;;;;5.90;4.33;;;20.50;99.90;;;;;;4953619;28;20217;-52
2022/07/26 06:35:43;;;;;;;5.50;5.07;;;20.30;99.90;;;;;;4955638;28;20667;-52
2022/07/26 06:38:10;;;;;;;4.30;4.07;;;20.10;99.90;;;;;;4959896;28;20209;-52
2022/07/26 06:40:37;;;;;;;5.57;4.63;;;20.00;99.90;;;;;;4962991;28;20212;-52
2022/07/26 06:43:04;;;;;;;4.73;4.43;;;20.00;99.90;;;;;;4952673;28;20221;-52
2022/07/26 06:45:31;;;;;;;5.20;4.87;;;19.90;99.90;;;;;;4968090;28;20200;-52
2022/07/26 06:47:58;;;;;;;5.03;4.73;;;19.90;99.90;;;;;;4968417;28;20208;-52
2022/07/26 06:50:27;;;;;;;5.10;4.73;;;20.00;99.90;;;;;;4970017;28;20217;-52
2022/07/26 06:52:54;;;;;;;4.33;4.07;;;20.20;99.90;;;;;;4958577;28;20221;-52
2022/07/26 06:55:21;;;;;;;4.90;4.47;;;20.40;99.90;;;;;;4954591;28;20208;-52
2022/07/26 06:57:48;;;;;;;4.80;4.40;;;20.50;99.90;;;;;;4956676;28;20205;-52
2022/07/26 07:00:17;;;;;;;4.67;4.37;;;20.50;99.90;;;;;;4952696;28;20193;-52
2022/07/26 07:02:44;;;;;;;6.03;5.47;;;20.60;99.90;;;;;;4971477;28;20286;-52
2022/07/26 07:05:11;;;;;;;5.63;5.13;;;20.60;99.90;;;;;;4975933;28;20209;-52
2022/07/26 07:07:40;;;;;;;4.90;4.60;;;20.50;99.90;;;;;;4981335;28;20204;-52
2022/07/26 07:10:07;;;;;;;4.30;3.93;;;20.60;99.90;;;;;;4979182;28;20774;-52
2022/07/26 07:12:34;;;;;;;3.73;3.53;;;20.70;99.90;;;;;;4976678;28;20205;-51
2022/07/26 07:15:01;;;;;;;3.57;3.37;;;20.80;99.90;;;;;;4961512;28;20288;-52
2022/07/26 07:17:28;;;;;;;4.37;4.07;;;20.90;99.90;;;;;;4957091;28;20528;-52
2022/07/26 07:19:55;;;;;;;4.30;3.83;;;20.90;99.90;;;;;;4962926;28;20624;-52
2022/07/26 07:22:22;;;;;;;4.83;4.40;;;20.90;99.90;;;;;;4979239;28;20615;-52
2022/07/26 07:24:51;;;;;;;4.03;3.63;;;21.10;99.90;;;;;;4984130;28;20250;-52
2022/07/26 07:27:18;;;;;;;5.70;4.13;;;21.30;99.90;;;;;;4976870;28;20207;-52
2022/07/26 07:29:45;;;;;;;5.43;3.63;;;21.60;99.90;;;;;;4971868;28;20259;-52
2022/07/26 07:32:12;;;;;;;3.03;2.93;;;21.70;99.90;;;;;;4977948;28;20200;-52
2022/07/26 07:34:39;;;;;;;3.20;3.10;;;21.70;99.90;;;;;;4965749;28;20279;-52
2022/07/26 07:37:06;;;;;;;5.10;3.97;;;21.70;99.90;;;;;;4975404;28;20207;-52
2022/07/26 07:39:33;;;;;;;3.90;3.70;;;21.80;99.90;;;;;;4975864;28;20720;-52
2022/07/26 07:42:01;;;;;;;4.10;3.80;;;21.60;99.90;;;;;;4980234;28;20234;-52
2022/07/26 07:44:28;;;;;;;3.90;3.50;;;21.50;99.90;;;;;;4987073;28;20215;-52
2022/07/26 07:46:55;;;;;;;3.90;3.60;;;21.50;99.90;;;;;;4977041;28;20204;-51
2022/07/26 07:49:22;;;;;;;3.27;3.00;;;21.50;99.90;;;;;;4975675;28;20264;-52
2022/07/26 07:51:49;;;;;;;3.40;3.20;;;21.30;99.90;;;;;;4968203;28;20220;-52
2022/07/26 08:17:55;;;;;;;2.70;2.50;;;21.30;99.90;;;;;;4971989;28;20196;-51
2022/07/26 08:20:22;;;;;;;2.80;2.67;;;21.20;99.90;;;;;;4973655;28;20368;-52
2022/07/26 08:22:49;;;;;;;2.80;2.60;;;21.20;99.90;;;;;;4986543;28;20228;-52
2022/07/26 08:25:16;;;;;;;3.30;3.00;;;21.10;99.90;;;;;;4987861;28;20200;-52
2022/07/26 08:27:43;;;;;;;6.33;4.53;;;21.00;99.90;;;;;;4980781;28;20200;-51
2022/07/26 08:30:11;;;;;;;4.60;4.20;;;20.90;99.90;;;;;;4979639;28;20212;-52
2022/07/26 08:32:38;;;;;;;5.13;4.00;;;20.80;99.90;;;;;;4977355;28;20259;-52
2022/07/26 08:35:07;;;;;;;8.53;4.27;;;20.60;99.90;;;;;;4985734;28;20254;-52
2022/07/26 08:37:34;;;;;;;5.23;4.73;;;20.40;99.90;;;;;;4986340;28;20860;-52
2022/07/26 08:40:01;;;;;;;4.83;4.23;;;20.40;99.90;;;;;;4975007;28;20203;-52
2022/07/26 08:42:28;;;;;;;4.10;3.80;;;20.30;99.90;;;;;;4970822;28;20251;-51
2022/07/26 08:44:55;;;;;;;4.13;3.93;;;20.10;99.90;;;;;;4968181;28;20228;-51
2022/07/26 08:47:23;;;;;;;6.03;4.17;;;20.00;99.90;;;;;;4974847;28;20215;-52
2022/07/26 08:49:49;;;;;;;4.57;4.23;;;20.10;99.90;;;;;;4956025;28;20260;-52
2022/07/26 08:52:18;;;;;;;4.00;3.63;;;20.00;99.90;;;;;;4973291;28;20688;-51
2022/07/26 08:54:46;;;;;;;5.43;4.53;;;20.00;99.90;;;;;;4985284;28;20219;-52
2022/07/26 08:57:14;;;;;;;4.57;3.93;;;20.00;99.90;;;;;;4975026;28;20263;-52
2022/07/26 08:59:41;;;;;;;6.17;5.23;;;20.20;99.90;;;;;;4973849;28;20294;-52
2022/07/26 09:02:11;;;;;;;5.57;5.27;;;20.40;99.90;;;;;;4979068;28;20258;-51
2022/07/26 09:04:39;;;;;;;6.00;5.60;;;20.50;99.90;;;;;;4984927;28;20223;-52
2022/07/26 09:07:08;;;;;;;4.37;4.07;;;20.70;99.90;;;;;;4993191;28;21012;-52
2022/07/26 09:09:38;;;;;;;5.13;4.70;;;20.90;99.90;;;;;;4992775;28;20223;-52
2022/07/26 09:12:15;;;;;;;4.70;4.30;;;21.10;99.90;;;;;;4985353;28;20266;-52
2022/07/26 09:14:45;;;;;;;4.67;4.37;;;21.20;99.90;;;;;;4981865;28;20290;-51
2022/07/26 09:31:27;;;;;;;3.60;3.40;;;21.70;99.90;;;;;;4982444;28;20290;-52
2022/07/26 09:33:55;;;;;;;2.67;2.47;;;21.60;99.90;;;;;;4974820;28;20224;-51
2022/07/26 09:36:22;;;;;;;2.27;2.23;;;21.50;99.90;;;;;;4982172;28;20251;-52
2022/07/26 09:38:52;;;;;;;2.33;2.13;;;21.10;99.90;;;;;;4980851;28;20259;-51
2022/07/26 09:41:20;;;;;;;2.70;2.50;;;21.00;99.90;;;;;;4989821;28;20208;-52
2022/07/26 09:43:47;;;;;;;2.43;2.23;;;21.00;99.90;;;;;;4989621;28;20279;-51
2022/07/26 09:46:14;;;;;;;2.40;2.20;;;20.90;99.90;;;;;;4981738;28;20604;-52
2022/07/26 09:48:42;;;;;;;1.60;1.60;;;21.00;99.90;;;;;;4978297;28;20204;-52
2022/07/26 09:51:10;;;;;;;2.10;2.10;;;21.30;99.90;;;;;;4984855;28;20216;-52
2022/07/26 09:53:45;;;;;;;2.53;2.30;;;21.60;99.90;;;;;;4990548;28;20740;-52
2022/07/26 09:56:12;;;;;;;2.63;2.53;;;21.90;99.90;;;;;;4981598;28;20263;-52
2022/07/26 09:58:42;;;;;;;2.40;2.20;;;22.10;99.90;;;;;;4980265;28;20208;-52
2022/07/26 10:01:09;;;;;;;1.60;1.60;;;22.20;99.90;;;;;;4981518;28;20196;-52
2022/07/26 10:03:36;;;;;;;2.72;2.53;;;22.20;99.90;;;;;;4977343;28;20519;-52
2022/07/26 10:06:04;;;;;;;2.93;2.07;;;22.40;99.90;;;;;;4964336;28;20737;-52
2022/07/26 10:08:32;;;;;;;2.43;2.23;;;22.80;99.90;;;;;;4970579;28;20236;-52
2022/07/26 10:11:05;;;;;;;3.10;2.20;;;22.80;99.90;;;;;;4973272;28;20315;-52
2022/07/26 10:13:32;;;;;;;1.63;1.53;;;23.10;99.90;;;;;;4963826;28;20287;-52
2022/07/26 10:16:00;;;;;;;1.73;1.63;;;23.50;99.90;;;;;;4967419;28;20811;-52
2022/07/26 10:18:44;;;;;;;1.97;1.73;;;23.70;99.90;;;;;;4960719;28;20205;-52
2022/07/26 10:21:22;;;;;;;1.20;1.10;;;23.80;99.90;;;;;;4962614;28;20303;-52
2022/07/26 10:23:52;;;;;;;0.70;0.70;;;24.10;99.90;;;;;;4963396;28;20333;-52
2022/07/26 10:26:39;;;;;;;1.10;1.10;;;24.10;99.90;;;;;;4965101;28;20239;-52
2022/07/26 10:29:25;;;;;;;2.10;1.03;;;24.30;99.90;;;;;;4963684;28;20203;-54
2022/07/26 10:32:14;;;;;;;1.20;1.03;;;24.30;99.90;;;;;;4953216;28;20201;-52
2022/07/26 10:34:42;;;;;;;1.80;1.30;;;24.20;99.90;;;;;;4955473;28;20624;-52
2022/07/26 10:37:11;;;;;;;1.37;1.37;;;23.80;99.90;;;;;;4957349;28;20204;-51
2022/07/26 10:39:40;;;;;;;0.80;0.80;;;23.80;99.90;;;;;;4971171;28;20850;-54
2022/07/26 10:42:08;;;;;;;2.37;1.20;;;23.60;99.90;;;;;;4970737;28;20216;-51
2022/07/26 10:44:37;;;;;;;3.17;1.30;;;23.60;99.90;;;;;;4967595;28;20224;-52
2022/07/26 10:47:17;;;;;;;1.23;1.23;;;23.70;99.90;;;;;;4952609;28;20231;-52
2022/07/26 10:49:55;;;;;;;2.33;1.13;;;23.90;99.90;;;;;;4952275;28;20308;-52
2022/07/26 10:52:26;;;;;;;1.07;1.07;;;23.90;99.90;;;;;;4956865;28;20260;-52
2022/07/26 10:55:12;;;;;;;0.70;0.70;;;24.10;99.90;;;;;;4966870;28;20674;-52
2022/07/26 10:57:41;;;;;;;1.33;0.70;;;24.10;99.90;;;;;;4952539;28;20197;-52
2022/07/26 11:00:14;;;;;;;1.17;1.17;;;24.40;99.90;;;;;;4957052;28;20197;-52
2022/07/26 11:02:43;;;;;;;1.77;0.93;;;24.20;99.90;;;;;;4956646;28;20793;-52
2022/07/26 11:05:13;;;;;;;2.50;0.90;;;24.10;99.90;;;;;;4965489;28;20205;-52
2022/07/26 11:08:10;;;;;;;1.17;1.10;;;24.10;99.90;;;;;;4961192;28;20284;-52
2022/07/26 11:10:40;;;;;;;0.90;0.90;;;24.10;99.90;;;;;;4961648;28;20279;-52
2022/07/26 11:13:15;;;;;;;1.40;1.30;;;24.20;99.90;;;;;;4965604;28;20220;-52
2022/07/26 11:15:45;;;;;;;0.97;0.97;;;24.10;99.90;;;;;;4953818;28;20259;-52
2022/07/26 11:18:19;;;;;;;0.97;0.97;;;24.00;99.90;;;;;;4954738;28;20268;-52
2022/07/26 11:20:51;;;;;;;2.20;1.00;;;24.30;99.90;;;;;;4951566;28;20710;-52
2022/07/26 11:23:27;;;;;;;1.23;1.13;;;24.60;99.90;;;;;;4960796;28;20235;-52
2022/07/26 11:26:07;;;;;;;2.90;1.17;;;24.60;99.90;;;;;;4952105;28;20342;-52
2022/07/26 11:42:05;;;;;;;1.80;1.00;;;25.10;99.90;;;;;;4959639;28;20261;-51
2022/07/26 11:44:33;;;;;;;1.60;1.50;;;25.00;99.90;;;;;;4981069;28;20361;-52
2022/07/26 12:24:05;;;;;;;1.17;1.17;;;25.30;99.90;;;;;;4968434;28;20248;-52
2022/07/26 12:26:32;;;;;;;0.77;0.77;;;25.50;99.90;;;;;;4966521;28;20209;-52
2022/07/26 12:29:23;;;;;;;1.03;1.03;;;25.80;99.90;;;;;;4967767;28;20228;-52
2022/07/26 12:32:02;;;;;;;1.60;1.50;;;25.90;99.90;;;;;;4955618;28;20710;-52
2022/07/26 12:34:29;;;;;;;1.20;0.98;;;25.90;99.90;;;;;;4958821;28;20231;-53
2022/07/26 12:37:05;;;;;;;1.65;1.10;;;25.80;99.90;;;;;;4962162;28;20736;-52
2022/07/26 12:39:34;;;;;;;1.13;1.13;;;25.50;99.90;;;;;;4974831;28;20208;-52
2022/07/26 12:42:20;;;;;;;1.10;1.10;;;25.50;99.90;;;;;;4974647;28;20271;-52
2022/07/26 12:44:47;;;;;;;1.10;1.10;;;25.50;99.90;;;;;;4982705;28;20220;-52
2022/07/26 12:47:15;;;;;;;1.53;1.10;;;25.40;99.90;;;;;;4975047;28;20204;-53
2022/07/26 12:49:45;;;;;;;2.83;1.33;;;25.20;99.90;;;;;;4962821;28;20201;-52
2022/07/26 12:52:12;;;;;;;1.57;1.47;;;25.10;99.90;;;;;;4954746;28;20200;-52
2022/07/26 12:54:41;;;;;;;2.27;1.27;;;25.10;99.90;;;;;;4962932;28;20276;-52
2022/07/26 12:57:08;;;;;;;1.00;1.00;;;25.10;99.90;;;;;;4957986;28;20285;-52
2022/07/26 12:59:35;;;;;;;1.33;1.33;;;25.20;99.90;;;;;;4954146;28;20684;-53
2022/07/26 13:02:03;;;;;;;0.90;0.90;;;25.40;99.90;;;;;;4954588;28;20189;-53
2022/07/26 13:04:30;;;;;;;0.93;0.87;;;25.30;99.90;;;;;;4964846;28;20600;-52
2022/07/26 13:06:57;;;;;;;1.27;1.27;;;25.60;99.90;;;;;;4955023;28;20208;-53
2022/07/26 13:09:24;;;;;;;1.90;1.77;;;25.70;99.90;;;;;;4954765;28;20209;-52
2022/07/26 13:11:52;;;;;;;1.15;1.15;;;25.50;99.90;;;;;;4957593;28;20280;-52
2022/07/26 13:14:19;;;;;;;1.27;1.27;;;25.50;99.90;;;;;;4960299;28;20522;-53
2022/07/26 13:16:46;;;;;;;1.10;1.10;;;25.60;99.90;;;;;;4955031;28;20213;-54
2022/07/26 13:19:13;;;;;;;1.42;1.35;;;25.80;99.90;;;;;;4960362;28;20197;-54
2022/07/26 13:21:40;;;;;;;1.30;1.20;;;26.00;99.90;;;;;;4964136;28;20233;-54
2022/07/26 13:24:07;;;;;;;1.30;1.20;;;25.90;99.90;;;;;;4954281;28;20245;-54
2022/07/26 13:26:34;;;;;;;1.50;0.90;;;26.00;99.90;;;;;;4968548;28;20272;-54
2022/07/26 13:29:03;;;;;;;0.90;0.90;;;26.20;99.90;;;;;;4971534;28;20685;-54
2022/07/26 13:31:31;;;;;;;1.38;1.27;;;26.10;99.90;;;;;;4960422;28;20217;-54
2022/07/26 13:33:58;;;;;;;1.02;1.02;;;26.20;99.90;;;;;;4952890;28;20220;-54
2022/07/26 13:36:25;;;;;;;1.08;0.98;;;26.30;99.90;;;;;;4953930;28;20346;-54
2022/07/26 13:38:52;;;;;;;0.70;0.70;;;26.40;99.90;;;;;;4967984;28;20289;-54
2022/07/26 13:41:19;;;;;;;1.25;1.25;;;26.30;99.90;;;;;;4969715;28;20287;-54
2022/07/26 13:43:46;;;;;;;0.98;0.98;;;26.20;99.90;;;;;;4968788;28;20259;-55
2022/07/26 13:46:14;;;;;;;1.10;1.10;;;26.10;99.90;;;;;;4963514;28;20240;-54
2022/07/26 13:48:41;;;;;;;1.35;1.35;;;26.00;99.90;;;;;;4975191;28;20660;-54
2022/07/26 13:51:09;;;;;;;1.25;1.25;;;25.70;99.90;;;;;;4955472;28;20780;-54
2022/07/26 13:53:39;;;;;;;1.58;1.52;;;25.40;99.90;;;;;;4961610;28;20307;-54
2022/07/26 13:56:07;;;;;;;1.15;1.15;;;25.40;99.90;;;;;;4971815;28;20200;-54
2022/07/26 13:58:34;;;;;;;2.78;1.58;;;25.30;99.90;;;;;;4966754;28;20675;-54
2022/07/26 14:01:02;;;;;;;1.10;1.10;;;25.10;99.90;;;;;;4964608;28;20235;-55
2022/07/26 14:03:32;;;;;;;1.50;1.40;;;25.10;99.90;;;;;;4970634;28;20225;-54
2022/07/26 14:05:58;;;;;;;2.30;1.73;;;25.10;99.90;;;;;;4971059;28;20516;-54
2022/07/26 14:08:26;;;;;;;1.60;1.50;;;24.90;99.90;;;;;;4966957;28;20283;-54
2022/07/26 14:10:53;;;;;;;2.17;1.02;;;25.00;99.90;;;;;;4965109;28;20217;-54
2022/07/26 14:13:20;;;;;;;1.20;1.20;;;25.00;99.90;;;;;;4959220;28;20264;-55
2022/07/26 14:15:47;;;;;;;1.60;1.50;;;25.00;99.90;;;;;;4973196;28;20670;-54
2022/07/26 14:18:14;;;;;;;2.80;1.45;;;25.00;99.90;;;;;;4976766;28;20199;-54
2022/07/26 14:20:43;;;;;;;2.37;1.20;;;25.00;99.90;;;;;;4980242;28;20204;-54
2022/07/26 14:23:10;;;;;;;1.17;1.17;;;25.00;99.90;;;;;;4955331;28;20224;-54